Time;durP1;ratioP1;P1;durP2;ratioP2;P2;SDS_P1;SDS_P2;PMS_P1;PMS_P2;Temp;Humidity;BMP_temperature;BMP_pressure;BME280_temperature;BME280_humidity;BME280_pressure;Samples;Min_cycle;Max_cycle;Signal;HPM_P1;HPM_P2
2023/03/21 00:00:57;;;;;;;;;21.00;18.00;23.90;34.30;;;;;;111912;1259;49731;-66
2023/03/21 00:03:24;;;;;;;;;17.00;16.00;23.80;34.20;;;;;;111886;1260;46210;-66
2023/03/21 00:05:52;;;;;;;;;20.67;19.33;23.80;34.30;;;;;;111894;1259;55918;-66
2023/03/21 00:08:23;;;;;;;;;17.00;16.00;23.80;34.30;;;;;;111911;1258;53802;-66
2023/03/21 00:11:15;;;;;;;;;17.00;16.00;23.80;34.30;;;;;;111936;1259;49187;-67
2023/03/21 00:13:42;;;;;;;;;16.00;15.00;23.80;34.40;;;;;;111871;1259;49007;-67
2023/03/21 00:16:14;;;;;;;;;17.00;16.00;23.80;34.40;;;;;;111905;1259;47083;-66
2023/03/21 00:18:45;;;;;;;;;17.50;15.50;23.70;34.30;;;;;;111817;1259;56166;-66
2023/03/21 00:21:14;;;;;;;;;17.00;16.00;23.70;34.30;;;;;;111851;1258;53956;-67
2023/03/21 00:23:42;;;;;;;;;17.00;16.00;23.70;34.40;;;;;;111955;1255;49988;-67
2023/03/21 00:26:09;;;;;;;;;16.67;15.67;23.70;34.40;;;;;;111927;1259;50426;-66
2023/03/21 00:28:36;;;;;;;;;16.00;15.00;23.70;34.40;;;;;;111914;1259;46850;-65
2023/03/21 00:31:03;;;;;;;;;19.00;16.00;23.60;34.30;;;;;;111881;1259;56446;-66
2023/03/21 00:33:29;;;;;;;;;19.00;16.00;23.60;34.40;;;;;;111872;1259;54301;-66
2023/03/21 00:35:55;;;;;;;;;18.00;15.00;23.60;34.40;;;;;;111890;1259;49215;-66
2023/03/21 00:38:22;;;;;;;;;17.00;16.00;23.60;34.40;;;;;;111905;1259;50360;-66
2023/03/21 00:40:49;;;;;;;;;16.00;13.00;23.60;34.40;;;;;;111894;1259;46563;-66
2023/03/21 00:43:22;;;;;;;;;17.00;16.00;23.60;34.50;;;;;;111876;1259;56499;-65
2023/03/21 00:45:50;;;;;;;;;20.00;16.00;23.60;34.40;;;;;;111830;1259;53900;-67
2023/03/21 00:48:17;;;;;;;;;16.67;15.00;23.50;34.40;;;;;;111889;1259;49477;-66
2023/03/21 00:50:45;;;;;;;;;17.00;16.00;23.50;34.40;;;;;;111898;1259;49338;-66
2023/03/21 00:53:13;;;;;;;;;20.67;16.33;23.50;34.40;;;;;;111884;1259;46653;-66
2023/03/21 00:55:40;;;;;;;;;16.00;15.00;23.50;34.40;;;;;;111909;1259;56372;-66
2023/03/21 00:58:07;;;;;;;;;20.00;18.00;23.50;34.40;;;;;;111770;1260;54141;-68
2023/03/21 01:00:35;;;;;;;;;20.00;19.00;23.50;34.40;;;;;;111921;1259;49958;-67
2023/03/21 01:03:07;;;;;;;;;24.50;20.50;23.50;34.40;;;;;;111812;1260;49124;-67
2023/03/21 01:08:23;;;;;;;;;18.50;17.00;23.50;34.40;;;;;;111912;1260;56005;-68
2023/03/21 01:10:50;;;;;;;;;18.00;15.00;23.50;34.50;;;;;;111908;1259;53773;-67
2023/03/21 01:13:21;;;;;;;;;17.00;15.67;23.40;34.40;;;;;;111838;1255;49283;-66
2023/03/21 01:15:51;;;;;;;;;16.50;15.00;23.40;34.40;;;;;;111913;1256;49926;-64
2023/03/21 01:18:20;;;;;;;;;19.00;15.00;23.50;34.50;;;;;;111942;1259;46981;-66
2023/03/21 01:20:47;;;;;;;;;17.00;16.00;23.40;34.40;;;;;;111802;1259;57381;-66
2023/03/21 01:23:14;;;;;;;;;16.67;14.67;23.40;34.40;;;;;;111854;1259;53923;-66
2023/03/21 01:25:41;;;;;;;;;19.50;18.50;23.40;34.40;;;;;;111928;1259;49310;-67
2023/03/21 01:28:07;;;;;;;;;18.00;15.50;23.40;34.40;;;;;;111872;1260;49346;-67
2023/03/21 01:30:34;;;;;;;;;15.00;14.00;23.40;34.40;;;;;;111840;1259;46067;-67
2023/03/21 01:33:00;;;;;;;;;18.00;17.00;23.40;34.40;;;;;;111814;1259;55965;-66
2023/03/21 01:35:27;;;;;;;;;17.67;14.67;23.40;34.40;;;;;;111881;1260;54600;-66
2023/03/21 01:37:53;;;;;;;;;17.00;16.00;23.30;34.40;;;;;;111889;1260;49614;-66
2023/03/21 01:40:24;;;;;;;;;18.50;16.00;23.40;34.40;;;;;;111892;1259;50047;-65
2023/03/21 01:42:51;;;;;;;;;16.00;15.00;23.30;34.40;;;;;;111759;1260;46079;-66
2023/03/21 01:45:54;;;;;;;;;14.00;12.00;23.30;34.40;;;;;;111890;1259;55959;-65
2023/03/21 01:48:22;;;;;;;;;17.00;16.00;23.30;34.40;;;;;;111892;1259;53844;-66
2023/03/21 01:50:49;;;;;;;;;17.00;16.00;23.30;34.40;;;;;;111909;1259;49866;-66
2023/03/21 01:53:15;;;;;;;;;15.50;14.00;23.30;34.30;;;;;;111735;1261;49432;-66
2023/03/21 01:55:42;;;;;;;;;21.00;18.00;23.30;34.40;;;;;;111840;1260;46626;-66
2023/03/21 01:58:10;;;;;;;;;18.00;15.00;23.30;34.40;;;;;;111814;1260;56596;-66
2023/03/21 02:00:37;;;;;;;;;16.00;15.00;23.30;34.40;;;;;;111895;1259;53664;-66
2023/03/21 02:03:07;;;;;;;;;17.00;16.00;23.30;34.40;;;;;;111723;1260;48961;-68
2023/03/21 02:05:39;;;;;;;;;14.00;13.00;23.30;34.40;;;;;;111882;1259;49493;-68
2023/03/21 02:08:05;;;;;;;;;18.00;16.00;23.30;34.40;;;;;;111857;1261;47731;-69
2023/03/21 02:10:32;;;;;;;;;16.50;15.00;23.30;34.40;;;;;;111920;1259;56278;-69
2023/03/21 02:13:08;;;;;;;;;14.00;13.00;23.30;34.40;;;;;;111818;1260;54031;-69
2023/03/21 02:15:37;;;;;;;;;17.00;15.33;23.30;34.40;;;;;;111879;1256;50678;-68
2023/03/21 02:18:32;;;;;;;;;17.00;16.00;23.30;34.40;;;;;;111812;1261;49660;-68
2023/03/21 02:21:34;;;;;;;;;17.00;16.00;23.20;34.30;;;;;;111757;1259;46159;-68
2023/03/21 02:24:13;;;;;;;;;;;23.20;34.30;;;;;;111100;1265;56980;-68
2023/03/21 02:27:06;;;;;;;;;17.75;14.75;23.20;34.30;;;;;;111726;1260;53552;-68
2023/03/21 02:30:17;;;;;;;;;17.50;15.00;23.20;34.30;;;;;;111910;1259;49850;-68
2023/03/21 02:32:56;;;;;;;;;19.50;16.50;23.20;34.30;;;;;;111843;1259;49639;-69
2023/03/21 02:35:32;;;;;;;;;17.00;15.00;23.20;34.30;;;;;;111916;1259;46603;-67
2023/03/21 02:38:23;;;;;;;;;18.00;17.00;23.20;34.30;;;;;;111822;1257;56666;-67
2023/03/21 02:41:04;;;;;;;;;19.00;16.50;23.10;34.20;;;;;;111813;1260;55105;-67
2023/03/21 02:43:42;;;;;;;;;17.00;15.25;23.10;34.20;;;;;;111810;1260;49534;-67
2023/03/21 02:46:18;;;;;;;;;18.67;17.00;23.20;34.90;;;;;;111820;1261;49934;-67
2023/03/21 02:48:55;;;;;;;;;16.50;15.00;23.20;34.30;;;;;;111926;1259;46855;-67
2023/03/21 02:51:23;;;;;;;;;16.00;15.00;23.20;34.30;;;;;;111843;1259;57035;-67
2023/03/21 02:53:54;;;;;;;;;17.67;15.67;23.10;34.20;;;;;;111819;1261;54269;-67
2023/03/21 02:56:21;;;;;;;;;16.33;13.33;23.10;34.20;;;;;;111804;1259;49304;-68
2023/03/21 02:58:48;;;;;;;;;16.00;15.00;23.10;34.20;;;;;;111814;1259;50070;-67
2023/03/21 03:01:14;;;;;;;;;16.50;14.00;23.10;34.20;;;;;;111880;1255;46127;-67
2023/03/21 03:03:41;;;;;;;;;18.00;15.00;23.10;34.30;;;;;;111904;1257;57652;-68
2023/03/21 03:06:19;;;;;;;;;16.50;14.00;23.10;34.30;;;;;;111884;1259;53506;-68
2023/03/21 03:09:04;;;;;;;;;13.00;12.33;23.10;34.30;;;;;;111581;1260;51079;-67
2023/03/21 03:11:33;;;;;;;;;17.00;15.00;23.10;34.30;;;;;;111860;1259;49517;-68
2023/03/21 03:14:52;;;;;;;;;17.00;15.50;23.10;34.30;;;;;;111883;1260;46615;-67
2023/03/21 03:17:30;;;;;;;;;16.00;14.00;23.10;34.30;;;;;;111498;1260;56712;-69
2023/03/21 03:20:15;;;;;;;;;19.50;18.00;23.10;34.30;;;;;;111918;1260;54840;-69
2023/03/21 03:22:54;;;;;;;;;22.00;19.00;23.00;34.30;;;;;;111829;1259;49077;-68
2023/03/21 03:25:27;;;;;;;;;18.50;15.00;23.10;34.40;;;;;;111914;1259;50202;-68
2023/03/21 03:27:55;;;;;;;;;20.50;16.00;23.10;34.30;;;;;;111814;1259;47226;-69
2023/03/21 03:30:24;;;;;;;;;16.00;15.00;23.00;34.30;;;;;;111847;1260;57014;-66
2023/03/21 03:32:55;;;;;;;;;16.00;15.00;23.00;34.30;;;;;;111728;1260;53430;-66
2023/03/21 03:35:22;;;;;;;;;17.00;14.00;23.00;34.30;;;;;;111842;1255;49885;-66
2023/03/21 03:37:53;;;;;;;;;19.00;17.00;23.00;34.30;;;;;;111831;1257;49735;-66
2023/03/21 03:40:32;;;;;;;;;16.00;14.00;23.00;34.30;;;;;;111777;1260;46327;-66
2023/03/21 03:43:07;;;;;;;;;20.67;16.67;23.00;34.40;;;;;;111878;1259;56700;-66
2023/03/21 03:45:37;;;;;;;;;16.00;14.00;23.00;34.30;;;;;;111814;1259;54792;-66
2023/03/21 03:48:08;;;;;;;;;15.50;14.00;23.00;34.30;;;;;;111811;1257;49186;-67
2023/03/21 03:50:41;;;;;;;;;18.50;17.50;23.00;34.40;;;;;;111828;1261;49235;-67
2023/03/21 03:53:16;;;;;;;;;14.00;13.00;23.00;34.40;;;;;;111741;1257;46880;-66
2023/03/21 03:55:43;;;;;;;;;18.00;17.00;23.00;34.40;;;;;;111832;1259;57652;-67
2023/03/21 03:58:10;;;;;;;;;19.00;16.00;23.00;34.40;;;;;;111889;1259;53900;-67
2023/03/21 04:00:39;;;;;;;;;15.00;14.00;22.90;34.30;;;;;;111818;1259;49559;-66
2023/03/21 04:03:06;;;;;;;;;19.00;17.00;23.00;34.50;;;;;;111856;1259;49751;-67
2023/03/21 04:05:32;;;;;;;;;22.00;18.00;23.00;34.50;;;;;;111901;1259;47993;-67
2023/03/21 04:07:58;;;;;;;;;17.00;16.00;22.90;34.40;;;;;;111879;1255;57041;-67
2023/03/21 04:10:24;;;;;;;;;15.67;14.67;22.90;34.40;;;;;;111873;1259;53797;-68
2023/03/21 04:12:50;;;;;;;;;20.00;17.50;22.90;34.40;;;;;;111833;1259;50225;-68
2023/03/21 04:15:18;;;;;;;;;22.00;16.00;22.90;34.40;;;;;;111897;1259;49791;-68
2023/03/21 04:17:44;;;;;;;;;16.25;14.50;22.90;34.40;;;;;;111942;1255;47649;-67
2023/03/21 04:20:11;;;;;;;;;16.00;14.00;22.90;34.40;;;;;;111926;1259;56653;-66
2023/03/21 04:22:37;;;;;;;;;15.00;13.00;22.90;34.40;;;;;;111888;1259;54460;-67
2023/03/21 04:25:06;;;;;;;;;14.00;13.00;22.90;34.40;;;;;;111879;1260;50575;-68
2023/03/21 04:27:33;;;;;;;;;15.50;13.00;22.90;34.40;;;;;;111951;1259;50027;-67
2023/03/21 04:29:59;;;;;;;;;15.50;14.00;22.90;34.50;;;;;;111901;1259;46662;-69
2023/03/21 04:32:26;;;;;;;;;17.50;16.00;22.90;34.50;;;;;;111860;1259;57531;-68
2023/03/21 04:34:55;;;;;;;;;19.00;15.50;22.80;34.40;;;;;;111926;1259;53936;-68
2023/03/21 04:37:22;;;;;;;;;16.00;14.00;22.80;34.40;;;;;;111897;1259;49144;-67
2023/03/21 04:39:49;;;;;;;;;18.00;15.00;22.80;34.40;;;;;;111839;1257;50536;-68
2023/03/21 04:42:20;;;;;;;;;16.00;14.67;22.80;34.40;;;;;;111878;1259;47039;-68
2023/03/21 04:44:47;;;;;;;;;16.33;15.00;22.80;34.40;;;;;;111879;1259;57001;-70
2023/03/21 04:47:14;;;;;;;;;24.00;20.00;22.80;37.10;;;;;;111913;1258;53133;-72
2023/03/21 04:49:42;;;;;;;;;19.50;16.50;22.80;39.20;;;;;;111889;1259;50136;-73
2023/03/21 04:52:08;;;;;;;;;20.67;17.67;22.90;39.80;;;;;;111841;1259;49868;-72
2023/03/21 04:54:34;;;;;;;;;20.00;19.00;22.90;39.80;;;;;;111936;1260;46790;-71
2023/03/21 04:57:00;;;;;;;;;26.00;23.00;22.90;39.50;;;;;;111917;1258;56751;-72
2023/03/21 04:59:27;;;;;;;;;23.00;22.00;23.10;39.40;;;;;;111942;1259;54752;-73
2023/03/21 05:01:55;;;;;;;;;29.00;26.00;23.10;39.20;;;;;;111842;1260;49570;-72
2023/03/21 05:04:21;;;;;;;;;26.33;22.67;23.20;39.10;;;;;;111914;1259;49083;-72
2023/03/21 05:06:48;;;;;;;;;24.00;22.00;23.20;39.00;;;;;;111929;1255;47192;-72
2023/03/21 05:09:14;;;;;;;;;26.50;24.00;23.30;38.90;;;;;;111919;1255;57023;-73
2023/03/21 05:11:41;;;;;;;;;30.00;25.50;23.30;38.70;;;;;;111699;1260;53791;-75
2023/03/21 05:14:10;;;;;;;;;23.00;21.00;23.40;38.70;;;;;;111817;1258;49860;-73
2023/03/21 05:16:47;;;;;;;;;29.33;27.00;23.40;38.40;;;;;;111814;1257;49663;-71
2023/03/21 05:19:14;;;;;;;;;25.00;22.00;23.40;38.20;;;;;;111920;1257;46383;-70
2023/03/21 05:21:40;;;;;;;;;26.00;25.00;23.50;38.20;;;;;;111861;1255;57436;-78
2023/03/21 05:24:11;;;;;;;;;28.00;25.50;23.40;38.10;;;;;;111914;1259;55657;-68
2023/03/21 05:26:38;;;;;;;;;31.33;27.33;23.40;38.80;;;;;;111916;1259;49771;-66
2023/03/21 05:29:04;;;;;;;;;27.00;26.00;23.50;39.60;;;;;;111919;1255;49885;-66
2023/03/21 05:31:31;;;;;;;;;28.00;25.00;23.50;39.40;;;;;;111851;1259;47102;-67
2023/03/21 05:33:57;;;;;;;;;28.00;27.00;23.50;39.60;;;;;;111884;1259;57372;-71
2023/03/21 05:36:24;;;;;;;;;37.50;28.50;23.50;39.90;;;;;;111905;1259;54811;-65
2023/03/21 05:38:50;;;;;;;;;41.25;31.25;23.50;40.10;;;;;;111862;1259;49894;-63
2023/03/21 05:41:17;;;;;;;;;36.00;27.00;23.50;40.60;;;;;;111864;1259;49101;-65
2023/03/21 05:43:43;;;;;;;;;37.00;30.50;23.50;39.80;;;;;;111951;1259;45974;-63
2023/03/21 05:46:10;;;;;;;;;39.00;30.00;23.50;39.60;;;;;;111906;1259;56596;-63
2023/03/21 05:48:37;;;;;;;;;33.00;28.50;23.40;39.30;;;;;;111834;1259;53712;-64
2023/03/21 05:51:04;;;;;;;;;49.00;37.00;23.50;39.30;;;;;;111901;1259;49676;-63
2023/03/21 05:53:30;;;;;;;;;41.50;34.00;23.50;40.50;;;;;;111895;1259;48954;-65
2023/03/21 05:55:56;;;;;;;;;48.00;35.00;23.50;40.20;;;;;;111886;1259;46018;-64
2023/03/21 05:58:22;;;;;;;;;53.00;34.00;23.50;40.80;;;;;;111914;1255;56466;-64
2023/03/21 06:00:48;;;;;;;;;47.50;37.50;23.60;41.00;;;;;;111886;1260;54920;-64
2023/03/21 06:03:15;;;;;;;;;51.50;35.00;23.60;40.60;;;;;;111847;1260;48932;-66
2023/03/21 06:05:41;;;;;;;;;47.00;36.00;23.60;40.40;;;;;;111907;1259;49925;-68
2023/03/21 06:08:07;;;;;;;;;44.00;35.00;23.60;40.80;;;;;;111876;1259;46495;-67
2023/03/21 06:10:33;;;;;;;;;50.00;37.00;23.60;41.10;;;;;;111940;1259;56494;-68
2023/03/21 06:13:00;;;;;;;;;50.33;34.67;23.60;41.30;;;;;;111840;1259;53520;-68
2023/03/21 06:15:26;;;;;;;;;50.00;36.00;23.60;41.00;;;;;;111933;1259;50104;-69
2023/03/21 06:17:52;;;;;;;;;46.33;34.67;23.60;40.90;;;;;;111886;1260;49146;-66
2023/03/21 06:20:18;;;;;;;;;41.00;33.50;23.60;41.00;;;;;;111864;1260;46633;-65
2023/03/21 06:22:45;;;;;;;;;46.50;33.50;23.70;40.80;;;;;;111854;1259;56828;-65
2023/03/21 06:25:11;;;;;;;;;42.00;35.00;23.80;40.50;;;;;;111851;1260;54512;-67
2023/03/21 06:27:37;;;;;;;;;47.50;33.50;23.80;40.20;;;;;;111872;1259;50550;-67
2023/03/21 06:30:04;;;;;;;;;36.50;30.00;23.80;40.00;;;;;;111851;1260;49617;-67
2023/03/21 06:32:31;;;;;;;;;46.00;33.00;23.80;40.60;;;;;;111833;1259;46204;-64
2023/03/21 06:34:57;;;;;;;;;43.00;32.00;23.90;40.80;;;;;;111880;1259;56780;-66
2023/03/21 06:37:25;;;;;;;;;36.50;30.50;23.90;40.50;;;;;;111879;1259;54369;-64
2023/03/21 06:39:52;;;;;;;;;44.00;34.00;24.00;40.40;;;;;;111865;1259;49763;-64
2023/03/21 06:42:18;;;;;;;;;45.00;36.00;24.10;40.40;;;;;;111753;1261;49714;-64
2023/03/21 06:44:44;;;;;;;;;40.00;29.00;24.10;40.40;;;;;;111882;1260;46873;-64
2023/03/21 06:47:11;;;;;;;;;34.00;30.33;24.20;40.20;;;;;;111890;1259;57074;-66
2023/03/21 06:49:37;;;;;;;;;38.00;32.00;24.20;40.10;;;;;;111900;1259;54038;-64
2023/03/21 06:52:03;;;;;;;;;39.00;31.50;24.30;40.00;;;;;;111813;1259;50049;-64
2023/03/21 06:54:29;;;;;;;;;38.00;29.00;24.40;39.90;;;;;;111903;1260;49026;-63
2023/03/21 06:56:56;;;;;;;;;40.00;30.00;24.40;39.90;;;;;;111925;1259;47283;-68
2023/03/21 06:59:22;;;;;;;;;34.00;29.00;24.40;39.80;;;;;;111879;1260;56884;-64
2023/03/21 07:01:48;;;;;;;;;44.50;32.00;24.50;39.80;;;;;;111814;1259;54046;-67
2023/03/21 07:04:14;;;;;;;;;37.00;31.50;24.50;39.70;;;;;;111940;1255;49489;-66
2023/03/21 07:06:41;;;;;;;;;39.00;31.00;24.50;39.40;;;;;;111375;1260;666466;-66
2023/03/21 07:09:07;;;;;;;;;31.50;28.50;24.60;39.50;;;;;;111931;1260;46676;-66
2023/03/21 07:11:35;;;;;;;;;38.00;31.00;24.60;39.50;;;;;;111816;1259;57737;-64
2023/03/21 07:14:01;;;;;;;;;38.00;32.00;24.60;39.30;;;;;;111893;1259;54818;-65
2023/03/21 07:16:28;;;;;;;;;43.00;32.50;24.60;39.30;;;;;;111913;1259;50055;-65
2023/03/21 07:18:54;;;;;;;;;32.00;29.00;24.70;39.80;;;;;;111886;1259;49231;-65
2023/03/21 07:21:21;;;;;;;;;37.00;29.00;24.70;39.30;;;;;;111859;1259;47502;-67
2023/03/21 07:23:49;;;;;;;;;33.00;29.00;24.70;39.40;;;;;;111959;1259;56604;-65
2023/03/21 07:26:17;;;;;;;;;37.00;32.00;24.60;39.40;;;;;;111890;1259;54041;-66
2023/03/21 07:28:44;;;;;;;;;33.00;29.00;24.60;39.40;;;;;;111896;1259;50351;-66
2023/03/21 07:31:15;;;;;;;;;34.00;29.50;24.70;39.40;;;;;;111865;1257;49698;-66
2023/03/21 07:33:42;;;;;;;;;31.00;28.00;24.70;39.30;;;;;;111834;1259;46970;-65
2023/03/21 07:36:11;;;;;;;;;29.00;25.00;24.80;39.20;;;;;;111894;1260;56790;-66
2023/03/21 07:38:38;;;;;;;;;34.00;29.00;24.90;39.40;;;;;;111867;1259;54844;-65
2023/03/21 07:41:05;;;;;;;;;35.50;28.50;24.90;39.30;;;;;;111851;1260;49856;-66
2023/03/21 07:43:31;;;;;;;;;36.50;27.50;25.00;39.30;;;;;;111882;1260;49674;-65
2023/03/21 07:45:57;;;;;;;;;30.00;27.00;25.00;39.20;;;;;;111891;1260;47031;-66
2023/03/21 07:48:24;;;;;;;;;27.00;25.00;25.20;39.30;;;;;;111824;1260;56753;-66
2023/03/21 07:50:50;;;;;;;;;35.00;27.50;25.20;39.40;;;;;;111876;1259;54185;-65
2023/03/21 07:53:17;;;;;;;;;31.00;30.00;25.20;39.10;;;;;;111842;1259;49197;-66
2023/03/21 07:55:43;;;;;;;;;30.50;27.50;25.30;39.10;;;;;;111891;1259;49935;-64
2023/03/21 07:58:10;;;;;;;;;34.00;27.00;25.30;39.00;;;;;;111867;1260;46290;-66
2023/03/21 08:00:36;;;;;;;;;36.00;27.00;25.40;39.10;;;;;;111927;1259;56621;-66
2023/03/21 08:03:02;;;;;;;;;26.33;23.00;25.50;39.10;;;;;;111830;1260;53608;-66
2023/03/21 08:05:33;;;;;;;;;34.50;30.00;25.40;39.00;;;;;;111941;1259;50378;-66
2023/03/21 08:08:00;;;;;;;;;30.00;26.50;25.50;39.10;;;;;;111892;1255;49905;-65
2023/03/21 08:10:26;;;;;;;;;27.00;23.00;25.50;39.10;;;;;;111915;1259;45972;-66
2023/03/21 08:12:52;;;;;;;;;31.00;27.00;25.50;39.10;;;;;;111858;1255;56583;-65
2023/03/21 08:15:19;;;;;;;;;33.50;26.50;25.50;39.00;;;;;;111905;1259;54977;-64
2023/03/21 08:17:45;;;;;;;;;33.00;26.00;25.60;39.00;;;;;;111911;1259;49539;-67
2023/03/21 08:20:19;;;;;;;;;27.00;26.00;25.60;39.00;;;;;;111864;1259;49409;-67
2023/03/21 08:22:46;;;;;;;;;37.00;29.00;25.70;39.00;;;;;;111856;1255;46440;-65
2023/03/21 08:25:14;;;;;;;;;;;25.70;38.90;;;;;;111919;1260;57289;-63
2023/03/21 08:27:41;;;;;;;;;30.00;25.00;25.80;38.90;;;;;;111921;1259;53701;-63
2023/03/21 08:30:09;;;;;;;;;29.67;25.00;25.80;38.80;;;;;;111872;1259;48429;-63
2023/03/21 08:32:37;;;;;;;;;25.00;23.50;25.80;38.80;;;;;;111764;1259;49126;-65
2023/03/21 08:35:08;;;;;;;;;26.00;23.00;25.90;39.00;;;;;;111919;1259;46285;-64
2023/03/21 08:37:39;;;;;;;;;26.00;23.00;25.90;38.80;;;;;;111942;1259;57629;-65
2023/03/21 08:40:10;;;;;;;;;23.00;22.00;26.00;38.80;;;;;;111898;1257;53761;-65
2023/03/21 08:42:37;;;;;;;;;24.00;22.50;26.00;38.70;;;;;;111897;1258;49182;-66
2023/03/21 08:45:04;;;;;;;;;27.00;23.00;26.10;38.70;;;;;;111893;1255;49918;-64
2023/03/21 08:47:31;;;;;;;;;26.00;21.00;26.20;38.60;;;;;;111918;1259;46086;-65
2023/03/21 08:49:58;;;;;;;;;27.00;22.00;26.20;38.60;;;;;;111920;1259;57689;-65
2023/03/21 08:52:25;;;;;;;;;26.00;23.00;26.30;38.40;;;;;;111837;1258;54565;-64
2023/03/21 08:54:53;;;;;;;;;28.00;25.00;26.30;38.30;;;;;;111908;1258;50574;-65
2023/03/21 08:57:19;;;;;;;;;25.00;22.00;26.40;38.20;;;;;;111831;1259;49012;-64
2023/03/21 08:59:45;;;;;;;;;31.00;24.00;26.40;38.10;;;;;;111911;1255;46757;-63
2023/03/21 09:02:15;;;;;;;;;24.50;23.50;26.40;37.70;;;;;;111830;1259;56567;-64
2023/03/21 09:04:43;;;;;;;;;29.00;25.00;26.40;38.40;;;;;;111932;1260;53585;-65
2023/03/21 09:07:13;;;;;;;;;29.00;26.00;26.40;38.40;;;;;;111884;1256;49632;-64
2023/03/21 09:09:40;;;;;;;;;28.00;25.00;26.50;38.50;;;;;;111928;1255;49192;-64
2023/03/21 09:12:07;;;;;;;;;27.00;22.00;26.50;38.40;;;;;;111827;1260;46782;-65
2023/03/21 09:14:34;;;;;;;;;23.00;19.00;26.40;37.70;;;;;;111910;1258;56797;-66
2023/03/21 09:17:01;;;;;;;;;27.00;24.00;26.40;37.30;;;;;;111921;1259;54048;-64
2023/03/21 09:19:27;;;;;;;;;;;26.30;37.20;;;;;;111867;1259;49550;-64
2023/03/21 09:21:54;;;;;;;;;27.50;22.50;26.30;37.00;;;;;;111815;1259;47768;-65
2023/03/21 09:24:20;;;;;;;;;24.50;21.50;26.30;36.60;;;;;;111925;1259;46600;-68
2023/03/21 09:26:49;;;;;;;;;23.00;22.00;26.20;36.80;;;;;;111811;1261;56263;-66
2023/03/21 09:29:18;;;;;;;;;29.00;22.67;26.20;36.80;;;;;;111922;1259;53368;-65
2023/03/21 09:31:45;;;;;;;;;28.00;26.00;26.20;36.80;;;;;;111868;1258;49769;-67
2023/03/21 09:34:14;;;;;;;;;30.00;25.00;26.30;36.80;;;;;;111915;1258;49362;-67
2023/03/21 09:36:42;;;;;;;;;26.00;25.00;26.30;36.90;;;;;;111701;1260;46750;-66
2023/03/21 09:39:10;;;;;;;;;24.00;23.00;26.30;36.90;;;;;;111841;1257;56513;-68
2023/03/21 09:41:42;;;;;;;;;26.50;23.50;26.30;37.10;;;;;;111866;1259;53879;-68
2023/03/21 09:44:33;;;;;;;;;23.00;22.00;26.40;36.90;;;;;;111902;1259;50406;-68
2023/03/21 09:47:05;;;;;;;;;24.00;20.00;26.40;36.90;;;;;;111844;1259;50310;-67
2023/03/21 09:49:34;;;;;;;;;24.33;23.33;26.40;36.90;;;;;;111913;1259;46422;-66
2023/03/21 09:52:05;;;;;;;;;25.67;22.67;26.50;36.90;;;;;;111725;1257;56164;-66
2023/03/21 09:54:35;;;;;;;;;25.00;23.00;26.50;36.70;;;;;;111858;1259;53534;-68
2023/03/21 09:57:11;;;;;;;;;22.50;19.50;26.50;36.40;;;;;;111822;1260;49794;-68
2023/03/21 09:59:40;;;;;;;;;20.50;19.50;26.50;36.30;;;;;;111874;1257;49841;-67
2023/03/21 10:02:38;;;;;;;;;23.00;22.00;26.50;36.70;;;;;;111794;1260;46162;-69
2023/03/21 10:05:21;;;;;;;;;21.00;18.50;26.50;37.10;;;;;;111831;1259;56989;-68
2023/03/21 10:08:06;;;;;;;;;24.00;22.00;26.50;37.10;;;;;;111921;1259;55079;-66
2023/03/21 10:10:53;;;;;;;;;24.67;22.33;26.50;36.90;;;;;;111822;1259;49154;-65
2023/03/21 10:13:24;;;;;;;;;23.50;18.50;26.60;36.70;;;;;;111890;1259;49520;-65
2023/03/21 10:15:55;;;;;;;;;25.00;24.50;26.60;36.80;;;;;;111821;1260;46663;-67
2023/03/21 10:18:24;;;;;;;;;28.50;23.50;26.60;36.90;;;;;;111858;1260;56698;-64
2023/03/21 10:20:51;;;;;;;;;23.33;22.33;26.70;37.00;;;;;;111893;1259;54683;-64
2023/03/21 10:23:20;;;;;;;;;26.00;23.00;26.70;36.70;;;;;;111848;1255;49358;-64
2023/03/21 10:25:52;;;;;;;;;28.50;25.00;26.70;36.50;;;;;;111788;1261;49964;-64
2023/03/21 10:28:26;;;;;;;;;24.00;21.00;26.70;36.50;;;;;;111858;1257;46155;-64
2023/03/21 10:30:58;;;;;;;;;26.00;22.50;26.70;36.50;;;;;;111902;1260;56617;-63
2023/03/21 10:33:46;;;;;;;;;24.00;21.00;26.70;36.50;;;;;;111872;1259;54386;-65
2023/03/21 10:36:19;;;;;;;;;22.00;20.00;26.70;36.70;;;;;;111836;1260;48980;-64
2023/03/21 10:38:49;;;;;;;;;22.00;21.00;26.70;36.40;;;;;;111580;1263;50586;-62
2023/03/21 10:41:16;;;;;;;;;22.00;21.00;26.70;36.40;;;;;;111808;1261;46366;-65
2023/03/21 10:43:44;;;;;;;;;22.00;21.00;26.70;36.60;;;;;;111832;1261;57625;-65
2023/03/21 10:46:20;;;;;;;;;25.00;23.00;26.70;36.50;;;;;;111850;1260;53992;-65
2023/03/21 10:48:51;;;;;;;;;25.00;24.00;26.70;36.50;;;;;;111910;1259;53581;-67
2023/03/21 10:51:30;;;;;;;;;25.00;22.00;26.70;36.70;;;;;;111783;1261;49097;-65
2023/03/21 10:53:59;;;;;;;;;21.00;20.00;26.70;36.40;;;;;;111820;1260;46169;-65
2023/03/21 10:56:29;;;;;;;;;28.33;24.33;26.80;36.40;;;;;;111917;1260;58235;-64
2023/03/21 10:58:57;;;;;;;;;20.50;20.00;26.80;36.40;;;;;;111827;1259;54022;-64
2023/03/21 11:01:35;;;;;;;;;24.50;21.00;26.90;36.30;;;;;;111873;1257;49592;-64
2023/03/21 11:04:13;;;;;;;;;24.00;21.50;26.90;36.00;;;;;;111861;1260;49216;-64
2023/03/21 11:06:41;;;;;;;;;24.50;23.50;26.90;35.80;;;;;;111833;1261;46650;-64
2023/03/21 11:09:18;;;;;;;;;25.50;24.50;26.90;35.70;;;;;;111883;1260;57494;-64
2023/03/21 11:12:01;;;;;;;;;22.50;21.50;26.80;35.50;;;;;;111839;1255;54369;-63
2023/03/21 11:14:46;;;;;;;;;22.00;20.00;26.80;35.60;;;;;;111875;1260;49483;-64
2023/03/21 11:17:15;;;;;;;;;22.00;20.00;26.80;35.50;;;;;;111886;1259;51192;-64
2023/03/21 11:19:55;;;;;;;;;27.67;24.00;26.80;35.40;;;;;;111914;1259;47458;-64
2023/03/21 11:22:24;;;;;;;;;26.00;22.00;26.70;35.70;;;;;;111862;1260;57021;-64
2023/03/21 11:25:01;;;;;;;;;19.00;18.00;26.70;35.70;;;;;;111812;1257;54090;-63
2023/03/21 11:27:28;;;;;;;;;28.00;25.00;26.70;35.40;;;;;;111817;1261;49876;-64
2023/03/21 11:29:57;;;;;;;;;23.50;20.50;26.60;35.20;;;;;;111789;1260;50511;-63
2023/03/21 11:32:32;;;;;;;;;27.00;25.00;26.60;35.30;;;;;;111834;1259;46231;-64
2023/03/21 11:35:03;;;;;;;;;25.50;20.00;26.60;35.50;;;;;;111895;1259;57211;-64
2023/03/21 11:37:55;;;;;;;;;26.00;25.00;26.60;35.70;;;;;;111829;1257;54282;-64
2023/03/21 11:40:27;;;;;;;;;29.50;23.00;26.50;35.60;;;;;;111459;1259;49923;-64
2023/03/21 11:43:16;;;;;;;;;22.50;19.50;26.50;35.60;;;;;;111847;1259;49716;-64
2023/03/21 11:46:00;;;;;;;;;23.00;22.00;26.50;35.80;;;;;;111909;1255;46108;-64
2023/03/21 11:48:27;;;;;;;;;26.00;23.00;26.50;35.90;;;;;;111902;1259;56590;-63
2023/03/21 11:51:03;;;;;;;;;22.00;20.00;26.50;35.70;;;;;;111870;1259;54432;-63
2023/03/21 11:53:39;;;;;;;;;24.50;22.50;26.50;35.80;;;;;;111855;1255;50282;-63
2023/03/21 11:56:24;;;;;;;;;23.00;20.00;26.50;35.80;;;;;;111848;1259;49810;-63
2023/03/21 11:59:30;;;;;;;;;23.00;20.00;26.50;35.80;;;;;;111855;1260;46852;-63
2023/03/21 12:02:12;;;;;;;;;23.00;21.67;26.50;36.00;;;;;;111332;1260;57892;-64
2023/03/21 12:04:43;;;;;;;;;26.00;21.00;26.50;35.90;;;;;;111895;1260;54418;-64
2023/03/21 12:07:15;;;;;;;;;25.00;22.50;26.50;35.90;;;;;;111909;1259;49561;-64
2023/03/21 12:09:41;;;;;;;;;24.00;22.00;26.50;35.90;;;;;;111920;1259;49423;-64
2023/03/21 12:12:30;;;;;;;;;24.00;20.00;26.50;35.90;;;;;;111745;1260;46761;-64
2023/03/21 12:15:09;;;;;;;;;26.00;22.00;26.50;35.90;;;;;;111832;1260;57289;-64
2023/03/21 12:17:55;;;;;;;;;23.00;20.00;26.60;36.00;;;;;;111812;1259;54069;-64
2023/03/21 12:20:48;;;;;;;;;25.50;23.00;26.60;36.00;;;;;;111889;1259;50360;-64
2023/03/21 12:23:31;;;;;;;;;25.00;22.00;26.60;35.90;;;;;;111722;1257;49813;-65
2023/03/21 12:26:29;;;;;;;;;20.00;18.00;26.60;35.90;;;;;;111880;1255;46079;-65
2023/03/21 12:29:21;;;;;;;;;20.00;16.00;26.60;36.50;;;;;;111916;1259;57169;-67
2023/03/21 12:31:56;;;;;;;;;24.50;24.00;26.50;38.40;;;;;;111755;1260;53335;-64
2023/03/21 12:34:22;;;;;;;;;24.50;22.00;26.50;39.10;;;;;;111915;1259;48998;-67
2023/03/21 12:37:10;;;;;;;;;22.00;21.00;26.40;38.70;;;;;;111919;1260;49677;-67
2023/03/21 12:39:39;;;;;;;;;28.00;27.00;26.30;37.80;;;;;;111933;1259;47032;-65